Time;durP1;ratioP1;P1;durP2;ratioP2;P2;SDS_P1;SDS_P2;PMS_P1;PMS_P2;Temp;Humidity;BMP_temperature;BMP_pressure;BME280_temperature;BME280_humidity;BME280_pressure;Samples;Min_cycle;Max_cycle;Signal;HPM_P1;HPM_P2
2022/10/28 00:02:20;;;;;;;1999.90;999.90;;;;;;;;;;5036096;28;20235;-76
2022/10/28 00:04:48;;;;;;;1999.90;999.90;;;;;;;;;;5022124;28;21335;-73
2022/10/28 00:07:16;;;;;;;1999.90;999.90;;;;;;;;;;5055438;28;20285;-73
2022/10/28 00:09:45;;;;;;;1999.90;999.90;;;;;;;;;;5049361;28;20228;-73
2022/10/28 00:12:13;;;;;;;1999.90;999.90;;;;;;;;;;5035361;28;20228;-72
2022/10/28 00:14:40;;;;;;;1999.90;999.90;;;;;;;;;;5035830;28;20236;-73
2022/10/28 00:17:08;;;;;;;1999.90;999.90;;;;;;;;;;5038904;28;20233;-72
2022/10/28 00:19:36;;;;;;;1999.90;999.90;;;;;;;;;;5039223;28;20240;-72
2022/10/28 00:22:03;;;;;;;1999.90;999.90;;;;;;;;;;5042563;28;20378;-72
2022/10/28 00:24:31;;;;;;;1999.90;999.90;;;;;;;;;;5035129;28;20339;-73
2022/10/28 00:27:00;;;;;;;1999.90;999.90;;;;;;;;;;5041390;28;20243;-73
2022/10/28 00:29:28;;;;;;;1999.90;999.90;;;;;;;;;;5035811;28;20230;-75
2022/10/28 00:31:56;;;;;;;1999.90;999.90;;;;;;;;;;5045668;28;20712;-72
2022/10/28 00:34:24;;;;;;;1999.90;999.90;;;;;;;;;;5031688;28;20258;-74
2022/10/28 00:36:51;;;;;;;1999.90;999.90;;;;;;;;;;5053943;28;20290;-75
2022/10/28 00:39:20;;;;;;;1999.90;999.90;;;;;;;;;;5062335;28;20961;-72
2022/10/28 00:41:48;;;;;;;1999.90;999.90;;;;;;;;;;5055414;28;20237;-74
2022/10/28 00:44:35;;;;;;;1999.90;999.90;;;;;;;;;;5034711;28;21010;-73
2022/10/28 00:47:04;;;;;;;1999.90;999.90;;;;;;;;;;5035236;28;20259;-73
2022/10/28 00:49:34;;;;;;;1999.90;999.90;;;;;;;;;;5039134;28;20232;-74
2022/10/28 00:52:04;;;;;;;1999.90;999.90;;;;;;;;;;5036769;28;20232;-72
2022/10/28 00:54:31;;;;;;;1999.90;999.90;;;;;;;;;;5055086;28;20232;-74
2022/10/28 00:57:00;;;;;;;1999.90;999.90;;;;;;;;;;5039602;28;20319;-73
2022/10/28 00:59:31;;;;;;;1999.90;999.90;;;;;;;;;;5040968;28;20713;-73
2022/10/28 01:01:59;;;;;;;1999.90;999.90;;;;;;;;;;5050697;28;20228;-72
2022/10/28 01:04:28;;;;;;;1999.90;999.90;;;;;;;;;;5039311;28;20228;-72
2022/10/28 01:06:57;;;;;;;1999.90;999.90;;;;;;;;;;5058325;28;20311;-73
2022/10/28 01:09:24;;;;;;;1999.90;999.90;;;;;;;;;;5063208;28;20224;-72
2022/10/28 01:12:00;;;;;;;1999.90;999.90;;;;;;;;;;5048622;28;20234;-73
2022/10/28 01:14:35;;;;;;;1999.90;999.90;;;;;;;;;;5039565;28;20232;-73
2022/10/28 01:17:19;;;;;;;1999.90;999.90;;;;;;;;;;5042048;28;20232;-74
2022/10/28 01:20:10;;;;;;;1999.90;999.90;;;;;;;;;;5040964;28;20290;-74
2022/10/28 01:22:41;;;;;;;1999.90;999.90;;;;;;;;;;5042141;28;20862;-72
2022/10/28 01:25:27;;;;;;;1999.90;999.90;;;;;;;;;;5041359;28;20228;-74
2022/10/28 01:28:06;;;;;;;1999.90;999.90;;;;;;;;;;5056331;28;20243;-73
2022/10/28 01:30:41;;;;;;;1999.90;999.90;;;;;;;;;;5030820;28;20227;-72
2022/10/28 01:33:14;;;;;;;1999.90;999.90;;;;;;;;;;5034831;28;20227;-73
2022/10/28 01:35:47;;;;;;;1999.90;999.90;;;;;;;;;;5040948;28;20236;-73
2022/10/28 01:38:19;;;;;;;1999.90;999.90;;;;;;;;;;5064188;28;20234;-73
2022/10/28 01:40:50;;;;;;;1999.90;999.90;;;;;;;;;;5053082;28;20633;-74
2022/10/28 01:43:22;;;;;;;1999.90;999.90;;;;;;;;;;5023079;28;20228;-74
2022/10/28 01:45:51;;;;;;;1999.90;999.90;;;;;;;;;;5033361;28;20231;-73
2022/10/28 01:48:22;;;;;;;1999.90;999.90;;;;;;;;;;5047724;28;20960;-73
2022/10/28 01:50:52;;;;;;;1999.90;999.90;;;;;;;;;;5032749;28;20271;-74
2022/10/28 01:53:24;;;;;;;1999.90;999.90;;;;;;;;;;5037087;28;20314;-72
2022/10/28 01:55:52;;;;;;;1999.90;999.90;;;;;;;;;;5033711;28;20238;-73
2022/10/28 01:58:23;;;;;;;1999.90;999.90;;;;;;;;;;5034180;28;21228;-73
2022/10/28 02:00:51;;;;;;;1999.90;999.90;;;;;;;;;;5036779;28;20325;-73
2022/10/28 02:03:20;;;;;;;1999.90;999.90;;;;;;;;;;5033388;28;20793;-73
2022/10/28 02:05:49;;;;;;;1999.90;999.90;;;;;;;;;;5045046;28;21242;-73
2022/10/28 02:08:22;;;;;;;1999.90;999.90;;;;;;;;;;5063415;28;20314;-73
2022/10/28 02:10:58;;;;;;;1999.90;999.90;;;;;;;;;;5056331;28;20232;-74
2022/10/28 02:13:32;;;;;;;1999.90;999.90;;;;;;;;;;5042573;28;20667;-73
2022/10/28 02:16:04;;;;;;;1999.90;999.90;;;;;;;;;;5043586;28;21089;-73
2022/10/28 02:18:37;;;;;;;1999.90;999.90;;;;;;;;;;5041689;28;21005;-74
2022/10/28 02:21:06;;;;;;;1999.90;999.90;;;;;;;;;;5036961;28;20323;-72
2022/10/28 02:23:38;;;;;;;1999.90;999.90;;;;;;;;;;5033773;28;20364;-72
2022/10/28 02:26:08;;;;;;;1999.90;999.90;;;;;;;;;;5024329;28;21062;-74
2022/10/28 02:28:39;;;;;;;1999.90;999.90;;;;;;;;;;5043909;28;20290;-73
2022/10/28 02:31:10;;;;;;;1999.90;999.90;;;;;;;;;;5039591;28;20267;-75
2022/10/28 02:33:41;;;;;;;1999.90;999.90;;;;;;;;;;5042224;28;20290;-73
2022/10/28 02:36:11;;;;;;;1999.90;999.90;;;;;;;;;;5057962;28;20334;-73
2022/10/28 02:38:42;;;;;;;1999.90;999.90;;;;;;;;;;5060515;28;20234;-73
2022/10/28 02:41:12;;;;;;;1999.90;999.90;;;;;;;;;;5056267;28;21215;-73
2022/10/28 02:43:42;;;;;;;1999.90;999.90;;;;;;;;;;5038295;28;20239;-73
2022/10/28 02:46:11;;;;;;;1999.90;999.90;;;;;;;;;;5037824;28;20227;-74
2022/10/28 02:48:42;;;;;;;1999.90;999.90;;;;;;;;;;5028841;28;20239;-72
2022/10/28 02:51:13;;;;;;;1999.90;999.90;;;;;;;;;;5035081;28;20238;-73
2022/10/28 02:53:45;;;;;;;1999.90;999.90;;;;;;;;;;5035914;28;20220;-74
2022/10/28 02:56:13;;;;;;;1999.90;999.90;;;;;;;;;;5037216;28;20295;-73
2022/10/28 02:58:42;;;;;;;1999.90;999.90;;;;;;;;;;5039916;28;20306;-74
2022/10/28 03:01:10;;;;;;;1999.90;999.90;;;;;;;;;;5026359;28;20234;-74
2022/10/28 03:03:38;;;;;;;1999.90;999.90;;;;;;;;;;5037228;28;20687;-74
2022/10/28 03:06:07;;;;;;;1999.90;999.90;;;;;;;;;;5036162;28;20244;-72
2022/10/28 03:08:35;;;;;;;1999.90;999.90;;;;;;;;;;5059140;28;20228;-75
2022/10/28 03:11:02;;;;;;;1999.90;999.90;;;;;;;;;;5055749;28;20251;-76
2022/10/28 03:13:30;;;;;;;1999.90;999.90;;;;;;;;;;5033701;28;20354;-73
2022/10/28 03:15:58;;;;;;;1999.90;999.90;;;;;;;;;;5040194;28;21573;-73
2022/10/28 03:18:25;;;;;;;1999.90;999.90;;;;;;;;;;5043857;28;21991;-73
2022/10/28 03:20:53;;;;;;;1999.90;999.90;;;;;;;;;;5041298;28;20319;-72
2022/10/28 03:23:27;;;;;;;1999.90;999.90;;;;;;;;;;5016506;28;20403;-73
2022/10/28 03:25:54;;;;;;;1999.90;999.90;;;;;;;;;;5038768;28;20227;-72
2022/10/28 03:28:22;;;;;;;1999.90;999.90;;;;;;;;;;5036186;28;21255;-73
2022/10/28 03:30:50;;;;;;;1999.90;999.90;;;;;;;;;;5030722;28;20232;-74
2022/10/28 03:33:18;;;;;;;1999.90;999.90;;;;;;;;;;5037705;28;20895;-73
2022/10/28 03:35:45;;;;;;;1999.90;999.90;;;;;;;;;;5054249;28;20232;-74
2022/10/28 03:38:13;;;;;;;1999.90;999.90;;;;;;;;;;5059838;28;20941;-73
2022/10/28 03:40:47;;;;;;;1999.90;999.90;;;;;;;;;;5044796;28;20957;-74
2022/10/28 03:43:15;;;;;;;1999.90;999.90;;;;;;;;;;5042349;28;20238;-73
2022/10/28 03:45:43;;;;;;;1999.90;999.90;;;;;;;;;;5035192;28;20224;-73
2022/10/28 03:48:10;;;;;;;1999.90;999.90;;;;;;;;;;5019613;28;20262;-74
2022/10/28 03:50:38;;;;;;;1999.90;999.90;;;;;;;;;;5020517;28;21372;-73
2022/10/28 03:53:06;;;;;;;1999.90;999.90;;;;;;;;;;5035403;28;20239;-74
2022/10/28 03:55:34;;;;;;;1999.90;999.90;;;;;;;;;;5045536;28;22499;-74
2022/10/28 03:58:03;;;;;;;1999.90;999.90;;;;;;;;;;5034637;28;20305;-74
2022/10/28 04:00:31;;;;;;;1999.90;999.90;;;;;;;;;;5040246;28;20228;-74
2022/10/28 04:02:58;;;;;;;1999.90;999.90;;;;;;;;;;5040704;28;20235;-74
2022/10/28 04:05:26;;;;;;;1999.90;999.90;;;;;;;;;;5044658;28;20297;-74
2022/10/28 04:07:54;;;;;;;1999.90;999.90;;;;;;;;;;5047934;28;20238;-74
2022/10/28 04:10:22;;;;;;;1999.90;999.90;;;;;;;;;;5063501;28;20765;-74
2022/10/28 04:12:49;;;;;;;1999.90;999.90;;;;;;;;;;5049931;28;20232;-73
2022/10/28 04:15:19;;;;;;;1999.90;999.90;;;;;;;;;;5043495;28;20258;-73
2022/10/28 04:17:46;;;;;;;1999.90;999.90;;;;;;;;;;5041132;28;20232;-74
2022/10/28 04:20:14;;;;;;;1999.90;999.90;;;;;;;;;;5044776;28;20722;-75
2022/10/28 04:22:42;;;;;;;1999.90;999.90;;;;;;;;;;5041325;28;20246;-74
2022/10/28 04:25:09;;;;;;;1999.90;999.90;;;;;;;;;;5028009;28;20303;-73
2022/10/28 04:27:37;;;;;;;1999.90;999.90;;;;;;;;;;5045676;28;20235;-73
2022/10/28 04:30:06;;;;;;;1999.90;999.90;;;;;;;;;;5029031;28;20232;-73
2022/10/28 04:32:35;;;;;;;1999.90;999.90;;;;;;;;;;5046191;28;20721;-73
2022/10/28 04:35:02;;;;;;;1999.90;999.90;;;;;;;;;;5039148;28;20287;-73
2022/10/28 04:37:30;;;;;;;1999.90;999.90;;;;;;;;;;5043056;28;20235;-72
2022/10/28 04:39:58;;;;;;;1999.90;999.90;;;;;;;;;;5043520;28;20381;-73
2022/10/28 04:42:25;;;;;;;1999.90;999.90;;;;;;;;;;5058480;28;20244;-73
2022/10/28 04:44:53;;;;;;;1999.90;999.90;;;;;;;;;;5036886;28;20346;-75
2022/10/28 04:47:21;;;;;;;1999.90;999.90;;;;;;;;;;5042038;28;20247;-72
2022/10/28 04:49:52;;;;;;;1999.90;999.90;;;;;;;;;;5039381;28;20232;-74
2022/10/28 04:52:20;;;;;;;1999.90;999.90;;;;;;;;;;5034070;28;20341;-73
2022/10/28 04:54:48;;;;;;;1999.90;999.90;;;;;;;;;;5037962;28;20702;-73
2022/10/28 04:57:16;;;;;;;1999.90;999.90;;;;;;;;;;5031143;28;20233;-72
2022/10/28 04:59:44;;;;;;;1999.90;999.90;;;;;;;;;;5049545;28;20228;-74
2022/10/28 05:02:12;;;;;;;1999.90;999.90;;;;;;;;;;5039473;28;20240;-71
2022/10/28 05:04:40;;;;;;;1999.90;999.90;;;;;;;;;;5037331;28;20592;-71
2022/10/28 05:07:09;;;;;;;1999.90;999.90;;;;;;;;;;5037376;28;20227;-72
2022/10/28 05:09:37;;;;;;;1999.90;999.90;;;;;;;;;;5053507;28;20259;-72
2022/10/28 05:12:05;;;;;;;1999.90;999.90;;;;;;;;;;5060290;28;20383;-72
2022/10/28 05:14:33;;;;;;;1999.90;999.90;;;;;;;;;;5046026;28;20764;-72
2022/10/28 05:17:00;;;;;;;1999.90;999.90;;;;;;;;;;5040816;28;20299;-72
2022/10/28 05:19:28;;;;;;;1999.90;999.90;;;;;;;;;;5040710;28;20220;-71
2022/10/28 05:21:56;;;;;;;1999.90;999.90;;;;;;;;;;5025858;28;20239;-73
2022/10/28 05:24:25;;;;;;;1999.90;999.90;;;;;;;;;;5019947;28;20308;-72
2022/10/28 05:26:53;;;;;;;1999.90;999.90;;;;;;;;;;5025070;28;20660;-72
2022/10/28 05:29:20;;;;;;;1999.90;999.90;;;;;;;;;;5031331;28;20309;-74
2022/10/28 05:31:48;;;;;;;1999.90;999.90;;;;;;;;;;5042496;28;20234;-74
2022/10/28 05:34:16;;;;;;;1999.90;999.90;;;;;;;;;;5041942;28;20241;-74
2022/10/28 05:36:44;;;;;;;1999.90;999.90;;;;;;;;;;5042653;28;20224;-76
2022/10/28 05:39:12;;;;;;;1999.90;999.90;;;;;;;;;;5057758;28;20880;-71
2022/10/28 05:41:41;;;;;;;1999.90;999.90;;;;;;;;;;5060693;28;20240;-72
2022/10/28 05:44:09;;;;;;;1999.90;999.90;;;;;;;;;;5039942;28;20891;-74
2022/10/28 05:46:37;;;;;;;1999.90;999.90;;;;;;;;;;5035208;28;20223;-73
2022/10/28 05:49:04;;;;;;;1999.90;999.90;;;;;;;;;;5027072;28;20228;-74
2022/10/28 05:51:32;;;;;;;1999.90;999.90;;;;;;;;;;5042277;28;20240;-74
2022/10/28 05:54:00;;;;;;;1999.90;999.90;;;;;;;;;;5034796;28;20239;-72
2022/10/28 05:56:28;;;;;;;1999.90;999.90;;;;;;;;;;5038933;28;20232;-72
2022/10/28 05:58:57;;;;;;;1999.90;999.90;;;;;;;;;;5036364;28;21935;-74
2022/10/28 06:01:25;;;;;;;1999.90;999.90;;;;;;;;;;5017558;28;20307;-73
2022/10/28 06:03:53;;;;;;;1999.90;999.90;;;;;;;;;;5042640;28;20242;-72
2022/10/28 06:06:20;;;;;;;1999.90;999.90;;;;;;;;;;5039945;28;20236;-74
2022/10/28 06:08:48;;;;;;;1999.90;999.90;;;;;;;;;;5035605;28;21211;-72
2022/10/28 06:11:16;;;;;;;1999.90;999.90;;;;;;;;;;5062204;28;20224;-73
2022/10/28 06:13:44;;;;;;;1999.90;999.90;;;;;;;;;;5048118;28;20322;-72
2022/10/28 06:16:13;;;;;;;1999.90;999.90;;;;;;;;;;5036570;28;20279;-72
2022/10/28 06:18:40;;;;;;;1999.90;999.90;;;;;;;;;;5037673;28;20337;-73
2022/10/28 06:21:09;;;;;;;1999.90;999.90;;;;;;;;;;5035233;28;20239;-72
2022/10/28 06:23:36;;;;;;;1999.90;999.90;;;;;;;;;;5039852;28;20236;-72
2022/10/28 06:26:04;;;;;;;1999.90;999.90;;;;;;;;;;5050574;28;20228;-71
2022/10/28 06:28:32;;;;;;;1999.90;999.90;;;;;;;;;;5020629;28;21177;-72
2022/10/28 06:31:04;;;;;;;1999.90;999.90;;;;;;;;;;5022530;28;20346;-73
2022/10/28 06:33:33;;;;;;;1999.90;999.90;;;;;;;;;;5037277;28;20318;-74
2022/10/28 06:36:01;;;;;;;1999.90;999.90;;;;;;;;;;5038013;28;20255;-71
2022/10/28 06:38:29;;;;;;;1999.90;999.90;;;;;;;;;;5049884;28;20232;-71
2022/10/28 06:40:57;;;;;;;1999.90;999.90;;;;;;;;;;5063199;28;20227;-72
2022/10/28 06:43:25;;;;;;;1999.90;999.90;;;;;;;;;;5050636;28;20244;-74
2022/10/28 06:45:55;;;;;;;1999.90;999.90;;;;;;;;;;5039803;28;20235;-71
2022/10/28 06:48:24;;;;;;;1999.90;999.90;;;;;;;;;;5032895;28;20785;-72
2022/10/28 06:50:54;;;;;;;1999.90;999.90;;;;;;;;;;5035300;28;20227;-71
2022/10/28 06:53:23;;;;;;;1999.90;999.90;;;;;;;;;;5038983;28;20220;-72
2022/10/28 06:55:54;;;;;;;1999.90;999.90;;;;;;;;;;5039405;28;20690;-71
2022/10/28 06:58:22;;;;;;;1999.90;999.90;;;;;;;;;;5031847;28;20631;-73
2022/10/28 07:00:50;;;;;;;1999.90;999.90;;;;;;;;;;5034492;28;20224;-73
2022/10/28 07:03:18;;;;;;;1999.90;999.90;;;;;;;;;;5037892;28;20655;-73
2022/10/28 07:05:47;;;;;;;1999.90;999.90;;;;;;;;;;5035801;28;20231;-72
2022/10/28 07:08:17;;;;;;;1999.90;999.90;;;;;;;;;;5038692;28;20387;-72
2022/10/28 07:10:44;;;;;;;1999.90;999.90;;;;;;;;;;5060692;28;20231;-72
2022/10/28 07:13:12;;;;;;;1999.90;999.90;;;;;;;;;;5054862;28;20219;-72
2022/10/28 07:15:40;;;;;;;1999.90;999.90;;;;;;;;;;5038879;28;20902;-72
2022/10/28 07:18:08;;;;;;;1999.90;999.90;;;;;;;;;;5034012;28;20233;-73
2022/10/28 07:20:36;;;;;;;1999.90;999.90;;;;;;;;;;5032224;28;20717;-72
2022/10/28 07:23:04;;;;;;;1999.90;999.90;;;;;;;;;;5034287;28;20232;-73
2022/10/28 07:25:33;;;;;;;1999.90;999.90;;;;;;;;;;5032972;28;20235;-73
2022/10/28 07:28:01;;;;;;;1999.90;999.90;;;;;;;;;;5034930;28;20233;-73
2022/10/28 07:30:30;;;;;;;1999.90;999.90;;;;;;;;;;5030827;28;20231;-73
2022/10/28 07:32:59;;;;;;;1999.90;999.90;;;;;;;;;;5034759;28;20250;-72
2022/10/28 07:35:28;;;;;;;1999.90;999.90;;;;;;;;;;5034211;28;20240;-74
2022/10/28 07:37:56;;;;;;;1999.90;999.90;;;;;;;;;;5037610;28;20319;-73
2022/10/28 07:40:24;;;;;;;1999.90;999.90;;;;;;;;;;5052918;28;20259;-73
2022/10/28 07:42:53;;;;;;;1999.90;999.90;;;;;;;;;;5049668;28;23944;-74
2022/10/28 07:45:22;;;;;;;1999.90;999.90;;;;;;;;;;5034494;28;20730;-73
2022/10/28 07:47:50;;;;;;;1999.90;999.90;;;;;;;;;;5047277;28;20684;-71
2022/10/28 07:50:18;;;;;;;1999.90;999.90;;;;;;;;;;5037556;28;20228;-75
2022/10/28 07:52:45;;;;;;;1999.90;999.90;;;;;;;;;;5029568;28;20226;-71
2022/10/28 07:55:13;;;;;;;1999.90;999.90;;;;;;;;;;5031485;28;20240;-72
2022/10/28 07:57:42;;;;;;;1999.90;999.90;;;;;;;;;;5051088;28;20243;-74
2022/10/28 08:00:12;;;;;;;1999.90;999.90;;;;;;;;;;5028056;28;20779;-72
2022/10/28 08:02:39;;;;;;;1999.90;999.90;;;;;;;;;;5038810;28;20241;-71
2022/10/28 08:05:08;;;;;;;1999.90;999.90;;;;;;;;;;5043973;28;20710;-72
2022/10/28 08:07:35;;;;;;;1999.90;999.90;;;;;;;;;;5040361;28;20330;-72
2022/10/28 08:10:08;;;;;;;1999.90;999.90;;;;;;;;;;5053915;28;20261;-74
2022/10/28 08:12:36;;;;;;;1999.90;999.90;;;;;;;;;;5064533;28;20978;-71
2022/10/28 08:15:04;;;;;;;1999.90;999.90;;;;;;;;;;5039355;28;20745;-74
2022/10/28 08:17:34;;;;;;;1999.90;999.90;;;;;;;;;;5045994;28;20341;-75
2022/10/28 08:20:02;;;;;;;1999.90;999.90;;;;;;;;;;5029314;28;20226;-73
2022/10/28 08:22:30;;;;;;;1999.90;999.90;;;;;;;;;;5036226;28;20243;-75
2022/10/28 08:24:59;;;;;;;1999.90;999.90;;;;;;;;;;5038900;28;20241;-74
2022/10/28 08:27:27;;;;;;;1999.90;999.90;;;;;;;;;;5033402;28;20305;-75
2022/10/28 08:29:55;;;;;;;1999.90;999.90;;;;;;;;;;5034962;28;20228;-72
2022/10/28 08:32:23;;;;;;;1999.90;999.90;;;;;;;;;;5054981;28;20220;-73
2022/10/28 08:34:53;;;;;;;1999.90;999.90;;;;;;;;;;5013882;28;20235;-73
2022/10/28 08:37:22;;;;;;;1999.90;999.90;;;;;;;;;;5034470;28;20235;-74
2022/10/28 08:39:50;;;;;;;1999.90;999.90;;;;;;;;;;5024351;28;21419;-72
2022/10/28 08:42:24;;;;;;;1999.90;999.90;;;;;;;;;;5056042;28;20252;-72
2022/10/28 08:44:56;;;;;;;1999.90;999.90;;;;;;;;;;5026048;28;20239;-73
2022/10/28 08:47:31;;;;;;;1999.90;999.90;;;;;;;;;;5029932;28;20232;-72
2022/10/28 08:50:02;;;;;;;1999.90;999.90;;;;;;;;;;5025650;28;21117;-72
2022/10/28 08:52:33;;;;;;;1999.90;999.90;;;;;;;;;;5014450;28;20235;-72
2022/10/28 08:55:04;;;;;;;1999.90;999.90;;;;;;;;;;5039449;28;20239;-73
2022/10/28 08:57:34;;;;;;;1999.90;999.90;;;;;;;;;;5038727;28;21528;-72
2022/10/28 09:00:09;;;;;;;1999.90;999.90;;;;;;;;;;5038372;28;20266;-73
2022/10/28 09:02:46;;;;;;;1999.90;999.90;;;;;;;;;;5021557;28;20219;-72
2022/10/28 09:05:20;;;;;;;1999.90;999.90;;;;;;;;;;5050856;28;20327;-73
2022/10/28 09:07:48;;;;;;;1999.90;999.90;;;;;;;;;;5040363;28;20235;-73
2022/10/28 09:10:17;;;;;;;1999.90;999.90;;;;;;;;;;5052047;28;20270;-72
2022/10/28 09:12:50;;;;;;;1999.90;999.90;;;;;;;;;;5062843;28;20224;-73
2022/10/28 09:15:23;;;;;;;1999.90;999.90;;;;;;;;;;5039494;28;21158;-73
2022/10/28 09:17:52;;;;;;;1999.90;999.90;;;;;;;;;;5039186;28;20235;-74
2022/10/28 09:20:25;;;;;;;1999.90;999.90;;;;;;;;;;5034970;28;20487;-75
2022/10/28 09:22:56;;;;;;;1999.90;999.90;;;;;;;;;;5043770;28;20373;-74
2022/10/28 09:25:28;;;;;;;1999.90;999.90;;;;;;;;;;5041863;28;20251;-74
2022/10/28 09:28:04;;;;;;;1999.90;999.90;;;;;;;;;;5040549;28;20298;-74
2022/10/28 09:30:37;;;;;;;1999.90;999.90;;;;;;;;;;5025415;28;20235;-73
2022/10/28 09:33:09;;;;;;;1999.90;999.90;;;;;;;;;;5038843;28;20271;-73
2022/10/28 09:35:39;;;;;;;1999.90;999.90;;;;;;;;;;5058462;28;20263;-73
2022/10/28 09:38:11;;;;;;;1999.90;999.90;;;;;;;;;;5065148;28;20234;-76
2022/10/28 09:40:40;;;;;;;1999.90;999.90;;;;;;;;;;5051094;28;20286;-73
2022/10/28 09:43:11;;;;;;;1999.90;999.90;;;;;;;;;;5046791;28;20235;-75
2022/10/28 09:45:43;;;;;;;1999.90;999.90;;;;;;;;;;5048192;28;20263;-74
2022/10/28 09:48:14;;;;;;;1999.90;999.90;;;;;;;;;;5064051;28;20366;-75
2022/10/28 09:50:44;;;;;;;1999.90;999.90;;;;;;;;;;5042310;28;20235;-73
2022/10/28 09:53:14;;;;;;;1999.90;999.90;;;;;;;;;;5063081;28;21157;-72
2022/10/28 09:55:42;;;;;;;1999.90;999.90;;;;;;;;;;5052809;28;20236;-75
2022/10/28 09:58:11;;;;;;;1999.90;999.90;;;;;;;;;;5062845;28;20240;-74
2022/10/28 10:00:39;;;;;;;1999.90;999.90;;;;;;;;;;5062037;28;20251;-74
2022/10/28 10:03:06;;;;;;;1999.90;999.90;;;;;;;;;;5070527;28;20232;-72
2022/10/28 10:05:38;;;;;;;1999.90;999.90;;;;;;;;;;5063301;28;20649;-74
2022/10/28 10:08:10;;;;;;;1999.90;999.90;;;;;;;;;;5064655;28;20238;-72
2022/10/28 10:10:43;;;;;;;1999.90;999.90;;;;;;;;;;5044778;28;20224;-74
2022/10/28 10:13:12;;;;;;;1999.90;999.90;;;;;;;;;;5060621;28;21121;-74
2022/10/28 10:15:43;;;;;;;1999.90;999.90;;;;;;;;;;5065366;28;20286;-74
2022/10/28 10:18:14;;;;;;;1999.90;999.90;;;;;;;;;;5063447;28;20231;-73
2022/10/28 10:20:46;;;;;;;1999.90;999.90;;;;;;;;;;5060407;28;20254;-74
2022/10/28 10:23:26;;;;;;;1999.90;999.90;;;;;;;;;;5065460;28;20230;-75
2022/10/28 10:25:54;;;;;;;1999.90;999.90;;;;;;;;;;5062827;28;20231;-76
2022/10/28 10:28:23;;;;;;;1999.90;999.90;;;;;;;;;;5063066;28;20281;-74
2022/10/28 10:30:52;;;;;;;1999.90;999.90;;;;;;;;;;5065206;28;20278;-75
2022/10/28 10:33:21;;;;;;;1999.90;999.90;;;;;;;;;;5064916;28;20262;-74
2022/10/28 10:35:53;;;;;;;1999.90;999.90;;;;;;;;;;5043841;28;20227;-74
2022/10/28 10:38:28;;;;;;;1999.90;999.90;;;;;;;;;;5061908;28;20238;-73
2022/10/28 10:40:56;;;;;;;1999.90;999.90;;;;;;;;;;5061328;28;20223;-72
2022/10/28 10:43:29;;;;;;;1999.90;999.90;;;;;;;;;;5060861;28;20306;-74
2022/10/28 10:46:00;;;;;;;1999.90;999.90;;;;;;;;;;5064359;28;20239;-72
2022/10/28 10:48:29;;;;;;;1999.90;999.90;;;;;;;;;;5046924;28;20322;-73
2022/10/28 10:50:56;;;;;;;1999.90;999.90;;;;;;;;;;5064734;28;20236;-72
2022/10/28 10:53:25;;;;;;;1999.90;999.90;;;;;;;;;;5061998;28;21685;-72
2022/10/28 10:55:56;;;;;;;1999.90;999.90;;;;;;;;;;5064003;28;20717;-71
2022/10/28 10:58:25;;;;;;;1999.90;999.90;;;;;;;;;;5058316;28;20338;-72
2022/10/28 11:00:54;;;;;;;1999.90;999.90;;;;;;;;;;5051905;28;20327;-72
2022/10/28 11:03:24;;;;;;;1999.90;999.90;;;;;;;;;;5061986;28;21496;-73
2022/10/28 11:05:53;;;;;;;1999.90;999.90;;;;;;;;;;5060181;28;20245;-72
2022/10/28 11:08:39;;;;;;;1999.90;999.90;;;;;;;;;;5043433;28;20744;-71
2022/10/28 11:11:10;;;;;;;1999.90;999.90;;;;;;;;;;5060535;28;20228;-73
2022/10/28 11:13:39;;;;;;;1999.90;999.90;;;;;;;;;;5063304;28;20714;-72
2022/10/28 11:16:18;;;;;;;1999.90;999.90;;;;;;;;;;5066612;28;20224;-72
2022/10/28 11:18:47;;;;;;;1999.90;999.90;;;;;;;;;;5065044;28;20661;-72
2022/10/28 11:21:43;;;;;;;1999.90;999.90;;;;;;;;;;5063545;28;20258;-72
2022/10/28 11:24:18;;;;;;;1999.90;999.90;;;;;;;;;;5039838;28;20235;-72
2022/10/28 11:26:52;;;;;;;1999.90;999.90;;;;;;;;;;5045542;28;20235;-72
2022/10/28 11:29:19;;;;;;;1999.90;999.90;;;;;;;;;;5064686;28;20239;-72
2022/10/28 11:32:11;;;;;;;1999.90;999.90;;;;;;;;;;5066361;28;20827;-72
2022/10/28 11:34:49;;;;;;;1999.90;999.90;;;;;;;;;;5047834;28;20734;-72
2022/10/28 11:37:21;;;;;;;1999.90;999.90;;;;;;;;;;5063860;28;20239;-71
2022/10/28 11:39:55;;;;;;;1999.90;999.90;;;;;;;;;;5063905;28;20297;-72
2022/10/28 11:42:27;;;;;;;1999.90;999.90;;;;;;;;;;5045892;28;20230;-71
2022/10/28 11:44:59;;;;;;;1999.90;999.90;;;;;;;;;;5059495;28;20231;-73
2022/10/28 11:47:42;;;;;;;1999.90;999.90;;;;;;;;;;5062958;28;20260;-72
2022/10/28 11:50:14;;;;;;;1999.90;999.90;;;;;;;;;;5065330;28;20718;-72
2022/10/28 11:52:49;;;;;;;1999.90;999.90;;;;;;;;;;5063730;28;20232;-72
2022/10/28 11:55:20;;;;;;;1999.90;999.90;;;;;;;;;;5065803;28;20235;-72
2022/10/28 11:57:55;;;;;;;1999.90;999.90;;;;;;;;;;5060674;28;20395;-71
2022/10/28 12:00:27;;;;;;;1999.90;999.90;;;;;;;;;;5060848;28;20224;-71
2022/10/28 12:03:00;;;;;;;1999.90;999.90;;;;;;;;;;5063926;28;20824;-70
2022/10/28 12:05:33;;;;;;;1999.90;999.90;;;;;;;;;;5061778;28;20805;-71
2022/10/28 12:08:21;;;;;;;1999.90;999.90;;;;;;;;;;5061741;28;20232;-72
2022/10/28 12:11:00;;;;;;;1999.90;999.90;;;;;;;;;;5060709;28;20236;-71
2022/10/28 12:13:35;;;;;;;1999.90;999.90;;;;;;;;;;5066341;28;20228;-72
2022/10/28 12:16:06;;;;;;;1999.90;999.90;;;;;;;;;;5065476;28;20231;-72
2022/10/28 12:18:39;;;;;;;1999.90;999.90;;;;;;;;;;5066239;28;20232;-73
2022/10/28 12:21:11;;;;;;;1999.90;999.90;;;;;;;;;;5067178;28;20228;-73
2022/10/28 12:23:40;;;;;;;1999.90;999.90;;;;;;;;;;5062417;28;20243;-72
2022/10/28 12:26:09;;;;;;;1999.90;999.90;;;;;;;;;;5072634;28;20267;-72
2022/10/28 12:28:40;;;;;;;1999.90;999.90;;;;;;;;;;5062582;28;20301;-72
2022/10/28 12:31:13;;;;;;;1999.90;999.90;;;;;;;;;;5065874;28;20224;-72
2022/10/28 12:33:43;;;;;;;1999.90;999.90;;;;;;;;;;5065411;28;20235;-72
2022/10/28 12:36:18;;;;;;;1999.90;999.90;;;;;;;;;;5065468;28;20368;-73
2022/10/28 12:38:51;;;;;;;1999.90;999.90;;;;;;;;;;5064879;28;20354;-74
2022/10/28 12:41:21;;;;;;;1999.90;999.90;;;;;;;;;;5063564;28;20286;-72
2022/10/28 12:43:53;;;;;;;1999.90;999.90;;;;;;;;;;5066383;28;20242;-73
2022/10/28 12:46:26;;;;;;;1999.90;999.90;;;;;;;;;;5067057;28;20238;-72
2022/10/28 12:48:55;;;;;;;1999.90;999.90;;;;;;;;;;5081730;28;20252;-72
2022/10/28 12:51:25;;;;;;;1999.90;999.90;;;;;;;;;;5059735;28;20224;-72
2022/10/28 12:53:56;;;;;;;1999.90;999.90;;;;;;;;;;5057351;28;20302;-73
2022/10/28 12:56:26;;;;;;;1999.90;999.90;;;;;;;;;;5064791;28;20706;-72
2022/10/28 12:58:59;;;;;;;1999.90;999.90;;;;;;;;;;5065081;28;20417;-73
2022/10/28 13:01:28;;;;;;;1999.90;999.90;;;;;;;;;;5064833;28;20220;-72
2022/10/28 13:03:57;;;;;;;1999.90;999.90;;;;;;;;;;5064401;28;20715;-73
2022/10/28 13:06:40;;;;;;;1999.90;999.90;;;;;;;;;;5066218;28;20437;-73
2022/10/28 13:09:17;;;;;;;1999.90;999.90;;;;;;;;;;5061933;28;20324;-71
2022/10/28 13:12:09;;;;;;;1999.90;999.90;;;;;;;;;;5045996;28;20251;-72
2022/10/28 13:14:50;;;;;;;1999.90;999.90;;;;;;;;;;5043835;28;20657;-73
2022/10/28 13:17:24;;;;;;;1999.90;999.90;;;;;;;;;;5061813;28;20250;-72
2022/10/28 13:20:01;;;;;;;1999.90;999.90;;;;;;;;;;5065587;28;20277;-73
2022/10/28 13:22:43;;;;;;;1999.90;999.90;;;;;;;;;;5063957;28;20223;-71
2022/10/28 13:25:33;;;;;;;1999.90;999.90;;;;;;;;;;5049523;28;20235;-71
2022/10/28 13:28:01;;;;;;;1999.90;999.90;;;;;;;;;;5059561;28;20318;-73
2022/10/28 13:30:30;;;;;;;1999.90;999.90;;;;;;;;;;5063207;28;20343;-72
2022/10/28 13:33:04;;;;;;;1999.90;999.90;;;;;;;;;;5060050;28;20232;-72
2022/10/28 13:35:32;;;;;;;1999.90;999.90;;;;;;;;;;5061171;28;20645;-72
2022/10/28 13:38:01;;;;;;;1999.90;999.90;;;;;;;;;;5063472;28;20263;-72
2022/10/28 13:40:47;;;;;;;1999.90;999.90;;;;;;;;;;5067072;28;20227;-72
2022/10/28 13:43:18;;;;;;;1999.90;999.90;;;;;;;;;;5060489;28;20224;-72
2022/10/28 13:45:50;;;;;;;1999.90;999.90;;;;;;;;;;5060070;28;20960;-73
2022/10/28 13:48:36;;;;;;;1999.90;999.90;;;;;;;;;;5060667;28;20243;-73
2022/10/28 13:51:22;;;;;;;1999.90;999.90;;;;;;;;;;5060363;28;20239;-71
2022/10/28 13:53:55;;;;;;;1999.90;999.90;;;;;;;;;;5062346;28;20259;-73
2022/10/28 13:56:36;;;;;;;1999.90;999.90;;;;;;;;;;5061224;28;20776;-73
2022/10/28 13:59:05;;;;;;;1999.90;999.90;;;;;;;;;;5055575;28;20232;-72
2022/10/28 14:01:38;;;;;;;1999.90;999.90;;;;;;;;;;5051892;28;20980;-73